Time;durP1;ratioP1;P1;durP2;ratioP2;P2;SDS_P1;SDS_P2;PMS_P1;PMS_P2;Temp;Humidity;BMP_temperature;BMP_pressure;BME280_temperature;BME280_humidity;BME280_pressure;Samples;Min_cycle;Max_cycle;Signal;HPM_P1;HPM_P2
2023/04/19 00:00:39;;;;;;;9.00;5.18;;;7.50;99.90;;;;;;5052889;28;20079;-69
2023/04/19 00:03:06;;;;;;;8.65;4.70;;;7.50;99.90;;;;;;5035814;28;20471;-69
2023/04/19 00:05:32;;;;;;;7.68;4.50;;;7.40;99.90;;;;;;5051213;28;20048;-69
2023/04/19 00:07:58;;;;;;;8.43;4.00;;;7.40;99.90;;;;;;5053692;28;20190;-69
2023/04/19 00:10:24;;;;;;;7.93;4.75;;;7.40;99.90;;;;;;5051734;28;20037;-69
2023/04/19 00:12:50;;;;;;;8.75;4.53;;;7.40;99.90;;;;;;5051619;28;20029;-69
2023/04/19 00:15:16;;;;;;;9.73;4.97;;;7.40;99.90;;;;;;5051753;28;20037;-69
2023/04/19 00:17:42;;;;;;;8.73;4.93;;;7.40;99.90;;;;;;5051444;28;20047;-69
2023/04/19 00:20:09;;;;;;;8.73;4.63;;;7.40;99.90;;;;;;5051718;28;20049;-69
2023/04/19 00:22:35;;;;;;;8.05;4.72;;;7.30;99.90;;;;;;5051255;28;20056;-70
2023/04/19 00:25:01;;;;;;;10.52;5.18;;;7.30;99.90;;;;;;5051906;28;20040;-69
2023/04/19 00:27:26;;;;;;;9.45;4.57;;;7.30;99.90;;;;;;5051749;28;20041;-70
2023/04/19 00:29:52;;;;;;;10.35;4.95;;;7.30;99.90;;;;;;5052953;28;20094;-70
2023/04/19 00:32:18;;;;;;;8.07;4.78;;;7.30;99.90;;;;;;5068002;28;20110;-69
2023/04/19 00:34:44;;;;;;;8.32;5.32;;;7.30;99.90;;;;;;5050416;28;20041;-69
2023/04/19 00:37:10;;;;;;;9.15;4.60;;;7.30;99.90;;;;;;5035521;28;20037;-69
2023/04/19 00:39:36;;;;;;;8.98;5.30;;;7.30;99.90;;;;;;5051179;28;20405;-69
2023/04/19 00:42:02;;;;;;;10.63;5.65;;;7.30;99.90;;;;;;5050797;28;20045;-69
2023/04/19 00:44:28;;;;;;;9.00;5.18;;;7.30;99.90;;;;;;5052274;28;20055;-69
2023/04/19 00:46:56;;;;;;;8.90;5.55;;;7.30;99.90;;;;;;5050739;28;20389;-69
2023/04/19 00:49:22;;;;;;;10.63;5.43;;;7.20;99.90;;;;;;5050177;28;20037;-69
2023/04/19 00:51:49;;;;;;;10.82;5.70;;;7.20;99.90;;;;;;5052652;28;20449;-69
2023/04/19 00:54:15;;;;;;;8.77;4.43;;;7.20;99.90;;;;;;5051209;28;20040;-69
2023/04/19 00:56:42;;;;;;;11.48;6.47;;;7.20;99.90;;;;;;5051640;28;20103;-69
2023/04/19 00:59:08;;;;;;;9.80;5.63;;;7.20;99.90;;;;;;5051251;28;20541;-69
2023/04/19 01:01:34;;;;;;;10.85;5.70;;;7.20;99.90;;;;;;5049828;28;20159;-69
2023/04/19 01:04:01;;;;;;;10.20;5.57;;;7.20;99.90;;;;;;5051252;28;20464;-69
2023/04/19 01:06:28;;;;;;;10.20;6.07;;;7.20;99.90;;;;;;5050399;28;20041;-69
2023/04/19 01:08:55;;;;;;;11.30;5.55;;;7.20;99.90;;;;;;5050332;28;20555;-69
2023/04/19 01:11:22;;;;;;;9.93;5.85;;;7.20;99.90;;;;;;5034147;28;20116;-69
2023/04/19 01:13:48;;;;;;;8.40;5.28;;;7.20;99.90;;;;;;5051080;28;20040;-69
2023/04/19 01:16:14;;;;;;;11.35;5.57;;;7.10;99.90;;;;;;5033227;28;20056;-69
2023/04/19 01:18:40;;;;;;;9.57;5.63;;;7.10;99.90;;;;;;5050628;28;20044;-69
2023/04/19 01:21:07;;;;;;;10.77;6.07;;;7.10;99.90;;;;;;5034417;28;20119;-69
2023/04/19 01:23:33;;;;;;;10.18;6.40;;;7.10;99.90;;;;;;5049501;28;20056;-69
2023/04/19 01:26:00;;;;;;;14.32;6.75;;;7.10;99.90;;;;;;5050766;28;20045;-69
2023/04/19 01:28:25;;;;;;;13.73;6.55;;;7.10;99.90;;;;;;5050310;28;20040;-69
2023/04/19 01:30:52;;;;;;;12.70;8.00;;;7.10;99.90;;;;;;5051333;28;20048;-69
2023/04/19 01:33:19;;;;;;;11.57;6.68;;;7.10;99.90;;;;;;5052003;28;20056;-69
2023/04/19 01:35:46;;;;;;;13.10;7.60;;;7.10;99.90;;;;;;5050889;28;20036;-69
2023/04/19 01:38:11;;;;;;;10.50;6.10;;;7.10;99.90;;;;;;5050030;28;20043;-70
2023/04/19 01:40:37;;;;;;;10.90;6.22;;;7.10;99.90;;;;;;5050396;28;20040;-70
2023/04/19 01:43:03;;;;;;;12.43;7.28;;;7.10;99.90;;;;;;5050729;28;20076;-69
2023/04/19 01:45:29;;;;;;;13.80;7.05;;;7.10;99.90;;;;;;5048949;28;20041;-69
2023/04/19 01:47:54;;;;;;;12.20;7.40;;;7.20;99.90;;;;;;5050659;28;20086;-69
2023/04/19 01:50:20;;;;;;;17.65;8.52;;;7.20;99.90;;;;;;5050380;28;20080;-70
2023/04/19 01:52:46;;;;;;;13.35;6.80;;;7.20;99.90;;;;;;5051249;28;20037;-70
2023/04/19 01:55:12;;;;;;;13.38;8.52;;;7.20;99.90;;;;;;5051562;28;20470;-69
2023/04/19 01:57:38;;;;;;;12.48;7.47;;;7.20;99.90;;;;;;5049818;28;20052;-70
2023/04/19 02:00:04;;;;;;;12.27;7.32;;;7.20;99.90;;;;;;5049975;28;20037;-69
2023/04/19 02:02:29;;;;;;;12.23;7.15;;;7.20;99.90;;;;;;5050108;28;20405;-69
2023/04/19 02:04:56;;;;;;;13.38;7.97;;;7.20;99.90;;;;;;5051244;28;20037;-69
2023/04/19 02:07:22;;;;;;;13.88;8.30;;;7.10;99.90;;;;;;5049807;28;20508;-69
2023/04/19 02:09:47;;;;;;;12.70;8.20;;;7.10;99.90;;;;;;5050604;28;20045;-69
2023/04/19 02:12:13;;;;;;;13.52;7.53;;;7.10;99.90;;;;;;5050644;28;20370;-69
2023/04/19 02:14:39;;;;;;;15.45;9.65;;;7.10;99.90;;;;;;5051005;28;20457;-70
2023/04/19 02:17:05;;;;;;;15.00;10.30;;;7.10;99.90;;;;;;5051646;28;20049;-70
2023/04/19 02:19:30;;;;;;;15.32;9.15;;;7.10;99.90;;;;;;5049240;28;20068;-69
2023/04/19 02:21:56;;;;;;;14.77;9.20;;;7.10;99.90;;;;;;5033846;28;20122;-69
2023/04/19 02:24:25;;;;;;;14.02;8.57;;;7.10;99.90;;;;;;5049952;28;20401;-69
2023/04/19 02:26:51;;;;;;;14.75;8.95;;;7.10;99.90;;;;;;5049406;28;20124;-70
2023/04/19 02:29:17;;;;;;;13.32;7.65;;;7.10;99.90;;;;;;5033467;28;20124;-70
2023/04/19 02:31:45;;;;;;;13.25;8.82;;;7.00;99.90;;;;;;5050305;28;20045;-69
2023/04/19 02:34:11;;;;;;;12.65;8.25;;;7.00;99.90;;;;;;5049499;28;20143;-69
2023/04/19 02:36:36;;;;;;;12.95;8.48;;;7.00;99.90;;;;;;5049661;28;20037;-70
2023/04/19 02:39:04;;;;;;;15.73;8.07;;;7.00;99.90;;;;;;5033617;28;20425;-70
2023/04/19 02:41:30;;;;;;;14.48;8.82;;;6.90;99.90;;;;;;5049936;28;20091;-70
2023/04/19 02:43:55;;;;;;;13.60;8.43;;;6.90;99.90;;;;;;5050967;28;20053;-69
2023/04/19 02:46:21;;;;;;;15.50;8.02;;;6.90;99.90;;;;;;5053086;28;20429;-69
2023/04/19 02:48:47;;;;;;;15.57;8.98;;;6.90;99.90;;;;;;5036426;28;20043;-70
2023/04/19 02:51:16;;;;;;;14.25;8.13;;;6.80;99.90;;;;;;5070376;28;20068;-70
2023/04/19 02:53:42;;;;;;;15.45;9.82;;;6.80;99.90;;;;;;5053397;28;20036;-69
2023/04/19 02:56:08;;;;;;;16.48;8.30;;;6.80;99.90;;;;;;5053732;28;20043;-69
2023/04/19 02:58:34;;;;;;;15.32;8.75;;;6.70;99.90;;;;;;5053173;28;20083;-69
2023/04/19 03:01:00;;;;;;;15.23;8.27;;;6.60;99.90;;;;;;5053464;28;20072;-69
2023/04/19 03:03:25;;;;;;;12.00;8.52;;;6.70;99.90;;;;;;5052257;28;20044;-70
2023/04/19 03:05:51;;;;;;;16.35;9.50;;;6.60;99.90;;;;;;5053715;28;20142;-69
2023/04/19 03:08:17;;;;;;;16.40;8.57;;;6.60;99.90;;;;;;5052469;28;20041;-69
2023/04/19 03:10:43;;;;;;;14.57;7.78;;;6.60;99.90;;;;;;5053929;28;20546;-69
2023/04/19 03:13:09;;;;;;;17.27;7.68;;;6.60;99.90;;;;;;5054697;28;20063;-69
2023/04/19 03:15:35;;;;;;;14.60;7.65;;;6.50;99.90;;;;;;5052238;28;20044;-70
2023/04/19 03:18:00;;;;;;;16.55;7.50;;;6.50;99.90;;;;;;5053423;28;20044;-69
2023/04/19 03:20:26;;;;;;;11.27;7.05;;;6.40;99.90;;;;;;5052807;28;20506;-70
2023/04/19 03:22:52;;;;;;;15.32;7.43;;;6.40;99.90;;;;;;5052107;28;20474;-69
2023/04/19 03:25:17;;;;;;;12.43;6.68;;;6.40;99.90;;;;;;5053907;28;20398;-70
2023/04/19 03:27:44;;;;;;;14.50;7.15;;;6.40;99.90;;;;;;5069388;28;20041;-70
2023/04/19 03:30:11;;;;;;;14.02;6.88;;;6.30;99.90;;;;;;5053403;28;20037;-69
2023/04/19 03:32:37;;;;;;;11.07;7.20;;;6.30;99.90;;;;;;5052322;28;20041;-70
2023/04/19 03:35:03;;;;;;;13.20;7.60;;;6.30;99.90;;;;;;5036404;28;20124;-69
2023/04/19 03:37:28;;;;;;;11.75;7.30;;;6.20;99.90;;;;;;5051584;28;20124;-70
2023/04/19 03:39:54;;;;;;;12.38;6.95;;;6.20;99.90;;;;;;5069139;28;20063;-69
2023/04/19 03:42:20;;;;;;;10.77;6.30;;;6.20;99.90;;;;;;5035595;28;20095;-69
2023/04/19 03:44:46;;;;;;;12.55;6.72;;;6.10;99.90;;;;;;5053402;28;20117;-70
2023/04/19 03:47:11;;;;;;;13.25;6.82;;;6.10;99.90;;;;;;5036040;28;20099;-70
2023/04/19 03:49:37;;;;;;;12.38;6.95;;;6.10;99.90;;;;;;5035215;28;20112;-70
2023/04/19 03:52:03;;;;;;;10.88;6.63;;;6.00;99.90;;;;;;5051596;28;20088;-70
2023/04/19 03:54:29;;;;;;;13.38;7.55;;;6.00;99.90;;;;;;5051362;28;20036;-69
2023/04/19 03:56:54;;;;;;;13.43;7.10;;;6.00;99.90;;;;;;5053182;28;20119;-70
2023/04/19 03:59:20;;;;;;;11.25;5.75;;;6.00;99.90;;;;;;5051264;28;20072;-71
2023/04/19 04:01:45;;;;;;;11.95;5.65;;;6.00;99.90;;;;;;5053835;28;20041;-70
2023/04/19 04:04:11;;;;;;;13.98;7.18;;;5.90;99.90;;;;;;5052422;28;20041;-70
2023/04/19 04:06:37;;;;;;;15.73;6.60;;;5.90;99.90;;;;;;5052073;28;20402;-70
2023/04/19 04:09:03;;;;;;;12.43;6.28;;;5.80;99.90;;;;;;5035323;28;20048;-69
2023/04/19 04:11:28;;;;;;;11.02;5.88;;;5.80;99.90;;;;;;5034293;28;20044;-69
2023/04/19 04:13:55;;;;;;;12.75;7.57;;;5.80;99.90;;;;;;5035569;28;20040;-69
2023/04/19 04:16:21;;;;;;;14.75;6.70;;;5.80;99.90;;;;;;5034798;28;20504;-69
2023/04/19 04:18:47;;;;;;;12.85;7.28;;;5.80;99.90;;;;;;5051211;28;20045;-70
2023/04/19 04:21:12;;;;;;;10.43;6.18;;;5.80;99.90;;;;;;5052030;28;20515;-69
2023/04/19 04:23:38;;;;;;;11.55;6.47;;;5.80;99.90;;;;;;5052559;28;20409;-70
2023/04/19 04:26:05;;;;;;;13.15;7.05;;;5.90;99.90;;;;;;5050928;28;20098;-70
2023/04/19 04:28:30;;;;;;;15.45;7.40;;;5.80;99.90;;;;;;5051634;28;20063;-70
2023/04/19 04:30:57;;;;;;;17.90;9.70;;;5.90;99.90;;;;;;5035467;28;20120;-70
2023/04/19 04:33:27;;;;;;;11.98;7.68;;;5.80;99.90;;;;;;5050483;28;20032;-70
2023/04/19 04:35:54;;;;;;;14.00;10.90;;;5.90;99.90;;;;;;5051434;28;20065;-70
2023/04/19 04:38:20;;;;;;;20.70;15.35;;;5.80;99.90;;;;;;5052321;28;20040;-70
2023/04/19 04:40:53;;;;;;;14.05;10.73;;;5.80;99.90;;;;;;5052066;28;20033;-70
2023/04/19 04:43:24;;;;;;;12.70;9.18;;;5.80;99.90;;;;;;5051233;28;20521;-70
2023/04/19 04:45:50;;;;;;;13.88;9.82;;;5.80;99.90;;;;;;5051366;28;20405;-70
2023/04/19 04:48:16;;;;;;;14.82;11.75;;;5.90;99.90;;;;;;5050408;28;20036;-70
2023/04/19 04:50:43;;;;;;;12.40;9.07;;;5.80;99.90;;;;;;5051001;28;20043;-70
2023/04/19 04:53:08;;;;;;;12.55;7.85;;;5.80;99.90;;;;;;5051334;28;20072;-69
2023/04/19 04:55:35;;;;;;;12.70;6.45;;;5.80;99.90;;;;;;5050249;28;20092;-70
2023/04/19 04:58:00;;;;;;;10.30;6.35;;;5.80;99.90;;;;;;5034888;28;20048;-70
2023/04/19 05:00:26;;;;;;;10.27;5.28;;;5.80;99.90;;;;;;5050940;28;20037;-70
2023/04/19 05:02:52;;;;;;;9.85;6.13;;;5.80;99.90;;;;;;5050630;28;20037;-70
2023/04/19 05:05:17;;;;;;;11.05;4.95;;;5.80;99.90;;;;;;5051881;28;20498;-70
2023/04/19 05:07:43;;;;;;;11.45;5.15;;;5.80;99.90;;;;;;5049804;28;20489;-70
2023/04/19 05:10:09;;;;;;;14.10;6.05;;;5.80;99.90;;;;;;5052637;28;20119;-69
2023/04/19 05:12:37;;;;;;;10.32;5.20;;;5.80;99.90;;;;;;5050565;28;20120;-70
2023/04/19 05:15:03;;;;;;;13.13;5.82;;;5.80;99.90;;;;;;5050199;28;20041;-70
2023/04/19 05:17:28;;;;;;;10.10;6.28;;;5.80;99.90;;;;;;5050445;28;20130;-69
2023/04/19 05:19:54;;;;;;;8.10;5.55;;;5.90;99.90;;;;;;5050960;28;20044;-70
2023/04/19 05:22:19;;;;;;;12.07;5.18;;;5.80;99.90;;;;;;5049584;28;20041;-70
2023/04/19 05:24:46;;;;;;;11.48;5.65;;;5.90;99.90;;;;;;5051041;28;20041;-70
2023/04/19 05:27:11;;;;;;;9.55;4.78;;;5.90;99.90;;;;;;5034105;28;20094;-70
2023/04/19 05:29:37;;;;;;;7.85;4.88;;;5.90;99.90;;;;;;5049600;28;20131;-70
2023/04/19 05:32:03;;;;;;;9.38;4.50;;;6.00;99.90;;;;;;5034600;28;20040;-70
2023/04/19 05:34:29;;;;;;;9.73;4.90;;;6.00;99.90;;;;;;5049670;28;20041;-69
2023/04/19 05:36:54;;;;;;;7.88;4.15;;;6.10;99.90;;;;;;5051371;28;20040;-70
2023/04/19 05:39:20;;;;;;;10.30;4.53;;;6.10;99.90;;;;;;5050117;28;20041;-70
2023/04/19 05:41:46;;;;;;;7.72;4.22;;;6.20;99.90;;;;;;5034227;28;20126;-70
2023/04/19 05:44:12;;;;;;;10.05;5.00;;;6.20;99.90;;;;;;5051342;28;20061;-70
2023/04/19 05:46:37;;;;;;;8.48;4.93;;;6.30;99.90;;;;;;5051218;28;20045;-69
2023/04/19 05:49:03;;;;;;;8.35;4.47;;;6.30;99.90;;;;;;5050812;28;20076;-70
2023/04/19 05:51:29;;;;;;;8.57;4.78;;;6.40;99.90;;;;;;5050698;28;20473;-70
2023/04/19 05:53:54;;;;;;;9.10;5.03;;;6.40;99.90;;;;;;5051004;28;20051;-70
2023/04/19 05:56:20;;;;;;;10.07;6.22;;;6.50;99.90;;;;;;5033911;28;20476;-70
2023/04/19 05:58:46;;;;;;;10.07;4.55;;;6.60;99.90;;;;;;5050168;28;20401;-70
2023/04/19 06:01:11;;;;;;;9.65;4.03;;;6.60;99.90;;;;;;5050882;28;20029;-70
2023/04/19 06:03:37;;;;;;;9.65;4.93;;;6.70;99.90;;;;;;5049870;28;20564;-70
2023/04/19 06:06:03;;;;;;;11.93;6.00;;;6.70;99.90;;;;;;5049550;28;20492;-70
2023/04/19 06:08:29;;;;;;;11.43;6.43;;;6.80;99.90;;;;;;5051301;28;20082;-70
2023/04/19 06:10:55;;;;;;;8.23;3.92;;;6.90;99.90;;;;;;5051912;28;20037;-70
2023/04/19 06:13:21;;;;;;;11.35;6.03;;;6.90;99.90;;;;;;5047451;28;20036;-70
2023/04/19 06:15:48;;;;;;;11.52;6.28;;;6.90;99.90;;;;;;5050664;28;20040;-70
2023/04/19 06:18:13;;;;;;;9.77;4.40;;;6.90;99.90;;;;;;5047725;28;20029;-69
2023/04/19 06:20:39;;;;;;;10.50;4.85;;;7.00;99.90;;;;;;5035177;28;20591;-70
2023/04/19 06:23:05;;;;;;;9.18;4.65;;;7.00;99.90;;;;;;5034557;28;20041;-70
2023/04/19 06:25:31;;;;;;;10.23;4.75;;;7.00;99.90;;;;;;5034346;28;20044;-70
2023/04/19 06:27:57;;;;;;;7.20;4.55;;;7.10;99.90;;;;;;5044611;28;20410;-70
2023/04/19 06:30:23;;;;;;;9.32;4.15;;;7.20;99.90;;;;;;5053668;28;20136;-70
2023/04/19 06:32:49;;;;;;;9.55;4.40;;;7.20;99.90;;;;;;5050507;28;20544;-70
2023/04/19 06:35:15;;;;;;;12.30;4.28;;;7.30;99.90;;;;;;5039142;28;20033;-69
2023/04/19 06:37:40;;;;;;;9.13;3.97;;;7.30;99.90;;;;;;5034362;28;20167;-70
2023/04/19 06:40:07;;;;;;;8.43;4.18;;;7.40;99.90;;;;;;5050161;28;20045;-70
2023/04/19 06:42:37;;;;;;;6.93;4.03;;;7.50;99.90;;;;;;5067168;28;20056;-70
2023/04/19 06:45:03;;;;;;;8.07;3.45;;;7.60;99.90;;;;;;5050941;28;20045;-70
2023/04/19 06:47:29;;;;;;;8.98;4.00;;;7.70;99.90;;;;;;5033046;28;20057;-69
2023/04/19 06:49:56;;;;;;;9.75;4.50;;;7.80;99.90;;;;;;5048570;28;20037;-70
2023/04/19 06:52:22;;;;;;;6.25;3.47;;;7.90;99.90;;;;;;5050124;28;20440;-70
2023/04/19 06:54:48;;;;;;;7.70;3.50;;;8.00;99.90;;;;;;5045271;28;20037;-70
2023/04/19 06:57:15;;;;;;;9.68;4.25;;;8.00;99.90;;;;;;5050411;28;20043;-70
2023/04/19 06:59:41;;;;;;;6.97;3.28;;;8.10;99.90;;;;;;5033918;28;20486;-70
2023/04/19 07:02:07;;;;;;;8.30;4.32;;;8.20;99.90;;;;;;5049947;28;20063;-69
2023/04/19 07:04:33;;;;;;;9.38;3.22;;;8.30;99.90;;;;;;5048607;28;20083;-70
2023/04/19 07:06:59;;;;;;;9.48;3.47;;;8.40;99.90;;;;;;5051604;28;20041;-69
2023/04/19 07:09:25;;;;;;;5.95;2.63;;;8.40;99.90;;;;;;5050105;28;20090;-70
2023/04/19 07:11:51;;;;;;;12.18;5.20;;;8.50;99.90;;;;;;5052124;28;20037;-70
2023/04/19 07:14:18;;;;;;;6.75;3.05;;;8.60;99.90;;;;;;5032034;28;20114;-70
2023/04/19 07:16:45;;;;;;;7.90;3.20;;;8.60;99.90;;;;;;5049786;28;20052;-71
2023/04/19 07:19:11;;;;;;;7.07;2.70;;;8.70;99.90;;;;;;5051695;28;20037;-60
2023/04/19 07:21:38;;;;;;;6.05;2.45;;;8.70;99.90;;;;;;5030700;28;20045;-61
2023/04/19 07:24:05;;;;;;;10.50;2.90;;;8.80;99.90;;;;;;5066819;28;20548;-61
2023/04/19 07:26:30;;;;;;;7.18;2.83;;;8.80;99.90;;;;;;5050313;28;20470;-61
2023/04/19 07:28:57;;;;;;;5.50;2.58;;;8.90;99.90;;;;;;5050439;28;20039;-61
2023/04/19 07:31:25;;;;;;;6.03;2.70;;;8.90;99.90;;;;;;5049159;28;20052;-61
2023/04/19 07:33:52;;;;;;;7.47;3.28;;;9.00;99.90;;;;;;5049757;28;20041;-61
2023/04/19 07:36:17;;;;;;;7.22;2.67;;;9.00;99.90;;;;;;5049111;28;20045;-60
2023/04/19 07:38:43;;;;;;;6.53;2.20;;;9.10;99.90;;;;;;5049139;28;20067;-61
2023/04/19 07:41:09;;;;;;;5.95;2.55;;;9.20;99.90;;;;;;5065806;28;20041;-61
2023/04/19 07:43:36;;;;;;;8.52;2.60;;;9.20;99.90;;;;;;5048228;28;20060;-61
2023/04/19 07:46:07;;;;;;;4.97;2.38;;;9.30;99.90;;;;;;5049259;28;20510;-60
2023/04/19 07:48:33;;;;;;;7.75;2.03;;;9.40;99.90;;;;;;5048860;28;20071;-60
2023/04/19 07:51:16;;;;;;;4.55;2.20;;;9.40;99.90;;;;;;5049230;28;20378;-61
2023/04/19 07:53:42;;;;;;;5.72;2.13;;;9.50;99.90;;;;;;5050083;28;20144;-61
2023/04/19 07:56:10;;;;;;;5.30;2.42;;;9.60;99.90;;;;;;5048444;28;20048;-61
2023/04/19 07:58:36;;;;;;;4.60;2.10;;;9.60;99.90;;;;;;5064060;28;20927;-61
2023/04/19 08:01:02;;;;;;;5.95;2.28;;;9.70;99.90;;;;;;5048472;28;20049;-64
2023/04/19 08:03:29;;;;;;;5.53;2.10;;;9.70;99.30;;;;;;5064957;28;20047;-60
2023/04/19 08:05:55;;;;;;;5.80;2.33;;;9.80;98.40;;;;;;5047433;28;20076;-61
2023/04/19 08:08:20;;;;;;;4.53;2.20;;;9.80;98.70;;;;;;5049223;28;20072;-61
2023/04/19 08:10:46;;;;;;;3.65;1.77;;;9.80;98.30;;;;;;5047727;28;20500;-61
2023/04/19 08:13:12;;;;;;;7.47;3.60;;;9.90;98.80;;;;;;5048684;28;20454;-60
2023/04/19 08:15:37;;;;;;;11.40;5.10;;;9.90;97.60;;;;;;5048226;28;20041;-61
2023/04/19 08:18:04;;;;;;;10.48;4.68;;;9.90;97.70;;;;;;5064539;28;20049;-61
2023/04/19 08:20:33;;;;;;;20.08;10.23;;;10.00;97.90;;;;;;5046075;28;20036;-61
2023/04/19 08:22:59;;;;;;;8.20;3.85;;;10.10;97.40;;;;;;5040359;28;20444;-61
2023/04/19 08:25:27;;;;;;;6.55;3.05;;;10.20;96.90;;;;;;5064289;28;20115;-62
2023/04/19 08:27:53;;;;;;;7.95;3.30;;;10.30;96.60;;;;;;5066052;28;20044;-64
2023/04/19 08:30:19;;;;;;;7.60;3.08;;;10.30;95.80;;;;;;5049387;28;20504;-63
2023/04/19 08:32:45;;;;;;;13.00;4.50;;;10.30;96.10;;;;;;5050090;28;20369;-62
2023/04/19 08:35:12;;;;;;;12.05;5.88;;;10.40;95.60;;;;;;5049146;28;20033;-68
2023/04/19 08:37:37;;;;;;;10.20;4.07;;;10.50;95.70;;;;;;5065284;28;20120;-67
2023/04/19 08:40:04;;;;;;;7.60;2.78;;;10.60;94.50;;;;;;5031278;28;20124;-67
2023/04/19 08:42:31;;;;;;;5.18;2.13;;;10.60;94.90;;;;;;5046529;28;20053;-67
2023/04/19 08:45:01;;;;;;;5.80;3.05;;;10.70;94.70;;;;;;5048334;28;20559;-67
2023/04/19 08:47:27;;;;;;;5.97;2.20;;;10.80;93.60;;;;;;5048534;28;20110;-67
2023/04/19 08:49:55;;;;;;;5.90;1.95;;;10.90;93.70;;;;;;5049866;28;20485;-67
2023/04/19 08:52:22;;;;;;;4.85;1.95;;;10.90;92.50;;;;;;5047655;28;20124;-67
2023/04/19 08:54:49;;;;;;;6.18;2.00;;;10.90;92.50;;;;;;5047728;28;20037;-60
2023/04/19 08:57:15;;;;;;;4.82;1.98;;;10.90;93.00;;;;;;5049016;28;20045;-60
2023/04/19 08:59:44;;;;;;;5.38;1.88;;;11.10;92.60;;;;;;5048320;28;20044;-60
2023/04/19 09:02:10;;;;;;;4.20;1.75;;;11.10;92.20;;;;;;5063807;28;20059;-60
2023/04/19 09:04:35;;;;;;;3.85;1.88;;;11.10;89.70;;;;;;5047562;28;20465;-60
2023/04/19 09:07:01;;;;;;;5.30;2.03;;;11.20;91.30;;;;;;5048550;28;20040;-60
2023/04/19 09:09:28;;;;;;;4.13;1.85;;;11.30;91.30;;;;;;5063496;28;20040;-60
2023/04/19 09:11:56;;;;;;;6.22;1.70;;;11.40;92.00;;;;;;5047870;28;20498;-60
2023/04/19 09:14:22;;;;;;;5.25;2.78;;;11.50;92.10;;;;;;5063528;28;20503;-60
2023/04/19 09:16:50;;;;;;;4.95;1.90;;;11.60;91.60;;;;;;5048598;28;20083;-60
2023/04/19 09:19:16;;;;;;;4.68;1.90;;;11.60;91.20;;;;;;5031815;28;20052;-60
2023/04/19 09:21:42;;;;;;;9.13;1.98;;;11.60;91.20;;;;;;5046703;28;20405;-60
2023/04/19 09:24:08;;;;;;;4.50;1.70;;;11.60;91.10;;;;;;5048136;28;20055;-60
2023/04/19 09:26:34;;;;;;;4.47;2.00;;;11.60;91.30;;;;;;5049306;28;20045;-61
2023/04/19 09:29:03;;;;;;;6.90;2.22;;;11.70;91.40;;;;;;5047047;28;20067;-59
2023/04/19 09:31:30;;;;;;;6.45;1.75;;;11.80;91.20;;;;;;5047492;28;20044;-60
2023/04/19 09:33:56;;;;;;;4.50;1.60;;;11.80;90.00;;;;;;5048091;28;20048;-60
2023/04/19 09:36:30;;;;;;;4.82;2.17;;;11.80;89.90;;;;;;5048135;28;20044;-60
2023/04/19 09:38:56;;;;;;;4.85;1.88;;;11.80;89.50;;;;;;5028849;28;20864;-60
2023/04/19 09:41:22;;;;;;;3.65;1.50;;;11.90;88.50;;;;;;5020627;28;20045;-60
2023/04/19 09:43:47;;;;;;;6.65;2.22;;;11.90;86.10;;;;;;5064482;28;20064;-59
2023/04/19 09:46:33;;;;;;;4.03;1.70;;;11.90;87.30;;;;;;5064583;28;20250;-60
2023/04/19 09:49:19;;;;;;;4.43;1.40;;;12.00;85.20;;;;;;5049003;28;20049;-60
2023/04/19 09:51:46;;;;;;;3.83;1.98;;;12.10;84.20;;;;;;5039851;28;20555;-60
2023/04/19 09:54:13;;;;;;;3.80;1.52;;;12.10;83.30;;;;;;5049907;28;20420;-61
2023/04/19 09:56:39;;;;;;;4.18;1.75;;;12.00;82.80;;;;;;5050004;28;20049;-61
2023/04/19 09:59:06;;;;;;;4.55;1.63;;;12.00;84.10;;;;;;5067866;28;20041;-61
2023/04/19 10:01:38;;;;;;;3.60;1.67;;;12.10;85.00;;;;;;5051706;28;20413;-61
2023/04/19 10:04:05;;;;;;;4.03;2.05;;;12.20;84.80;;;;;;5040444;28;20098;-61
2023/04/19 10:06:31;;;;;;;8.10;2.10;;;12.20;85.20;;;;;;5050335;28;20509;-61
2023/04/19 10:09:01;;;;;;;6.28;2.45;;;12.40;90.50;;;;;;5068074;28;20044;-61
2023/04/19 10:11:35;;;;;;;7.63;2.47;;;12.50;93.00;;;;;;5066903;28;20043;-61
2023/04/19 10:14:07;;;;;;;8.07;2.80;;;12.50;94.00;;;;;;5052214;28;20091;-61
2023/04/19 10:16:34;;;;;;;7.70;2.58;;;12.50;94.00;;;;;;5052533;28;20052;-61
2023/04/19 10:19:03;;;;;;;5.28;2.50;;;12.40;94.60;;;;;;5067485;28;20048;-61
2023/04/19 10:21:30;;;;;;;6.20;2.45;;;12.50;95.00;;;;;;5048708;28;20053;-61
2023/04/19 10:23:57;;;;;;;4.10;1.95;;;12.50;95.20;;;;;;5067867;28;20055;-60
2023/04/19 10:26:23;;;;;;;5.82;2.15;;;12.50;95.40;;;;;;5031560;28;20397;-60
2023/04/19 10:28:49;;;;;;;5.35;2.13;;;12.60;94.80;;;;;;5031549;28;20132;-60
2023/04/19 10:31:20;;;;;;;5.32;2.42;;;12.60;95.20;;;;;;5030448;28;20128;-61
2023/04/19 10:33:47;;;;;;;5.60;2.28;;;12.70;95.30;;;;;;5060137;28;20497;-60
2023/04/19 10:36:14;;;;;;;6.00;2.50;;;12.70;94.50;;;;;;5033634;28;20055;-60
2023/04/19 10:38:46;;;;;;;5.18;1.90;;;12.70;94.30;;;;;;5050950;28;20049;-60
2023/04/19 10:41:16;;;;;;;4.38;1.65;;;12.80;93.00;;;;;;5050658;28;20127;-60
2023/04/19 10:44:11;;;;;;;4.78;1.75;;;12.70;92.30;;;;;;5033455;28;20049;-60
2023/04/19 10:46:40;;;;;;;5.85;1.80;;;12.70;91.50;;;;;;5048810;28;20128;-60
2023/04/19 10:49:08;;;;;;;5.10;1.85;;;12.70;92.00;;;;;;5050626;28;20037;-60
2023/04/19 10:51:41;;;;;;;3.72;1.52;;;12.70;92.60;;;;;;5050361;28;20086;-60
2023/04/19 10:54:08;;;;;;;5.68;1.73;;;12.70;91.00;;;;;;5049785;28;20178;-60
2023/04/19 10:56:34;;;;;;;4.90;1.70;;;12.70;91.20;;;;;;5048551;28;20044;-60
2023/04/19 10:59:13;;;;;;;4.75;1.58;;;12.70;90.70;;;;;;5050291;28;20041;-60
2023/04/19 11:01:44;;;;;;;4.95;1.70;;;12.70;90.40;;;;;;5032690;28;20041;-60
2023/04/19 11:04:10;;;;;;;4.20;1.92;;;12.70;90.10;;;;;;5049295;28;20045;-61
2023/04/19 11:06:55;;;;;;;4.03;1.60;;;12.80;91.30;;;;;;5048630;28;20041;-60
2023/04/19 11:09:25;;;;;;;3.58;1.45;;;12.90;90.90;;;;;;5032195;28;20037;-60
2023/04/19 11:11:59;;;;;;;4.15;1.48;;;13.00;90.30;;;;;;5049947;28;20040;-60
2023/04/19 11:14:26;;;;;;;6.43;1.80;;;12.90;86.70;;;;;;5050312;28;20482;-60
2023/04/19 11:16:51;;;;;;;5.43;1.80;;;12.90;87.00;;;;;;5050606;28;20438;-60
2023/04/19 11:19:18;;;;;;;4.13;1.30;;;12.90;87.30;;;;;;5050608;28;20056;-60
2023/04/19 11:21:45;;;;;;;5.65;1.83;;;12.90;85.20;;;;;;5047040;28;20052;-60
2023/04/19 11:24:11;;;;;;;6.20;1.73;;;13.00;86.90;;;;;;5049526;28;20044;-60
2023/04/19 11:26:37;;;;;;;5.13;1.70;;;13.10;87.50;;;;;;5048880;28;20102;-60
2023/04/19 11:29:05;;;;;;;6.50;2.42;;;13.20;88.20;;;;;;5050409;28;20044;-61
2023/04/19 11:31:34;;;;;;;6.30;1.90;;;13.30;87.40;;;;;;5050635;28;20048;-60
2023/04/19 11:34:01;;;;;;;6.50;2.60;;;13.20;85.20;;;;;;5049715;28;20092;-60
2023/04/19 11:36:27;;;;;;;5.75;2.15;;;13.20;84.10;;;;;;5049816;28;20052;-60
2023/04/19 11:38:53;;;;;;;6.50;2.65;;;13.20;85.40;;;;;;5065095;28;20056;-60
2023/04/19 11:41:18;;;;;;;6.22;1.90;;;13.10;82.70;;;;;;5050014;28;20043;-60
2023/04/19 11:43:45;;;;;;;5.75;2.10;;;13.00;83.00;;;;;;5048548;28;20115;-60
2023/04/19 11:46:12;;;;;;;5.85;1.70;;;13.10;85.00;;;;;;5050666;28;20481;-60
2023/04/19 11:48:48;;;;;;;4.30;1.52;;;13.00;83.50;;;;;;5065478;28;20082;-60
2023/04/19 11:51:14;;;;;;;3.83;1.88;;;13.20;85.60;;;;;;5050274;28;20394;-60
2023/04/19 11:53:40;;;;;;;5.68;2.03;;;13.20;85.00;;;;;;5049467;28;20056;-60
2023/04/19 11:56:07;;;;;;;3.85;1.40;;;13.30;85.60;;;;;;5048122;28;20033;-60
2023/04/19 11:58:38;;;;;;;3.78;1.48;;;13.30;85.50;;;;;;5049655;28;20036;-60
2023/04/19 12:01:05;;;;;;;5.88;1.60;;;13.20;82.10;;;;;;5049279;28;20032;-60
2023/04/19 12:03:31;;;;;;;5.90;1.90;;;13.00;82.10;;;;;;5048667;28;20545;-60
2023/04/19 12:05:59;;;;;;;5.90;2.13;;;13.00;84.30;;;;;;5050495;28;20124;-60
2023/04/19 12:08:35;;;;;;;5.00;2.00;;;13.00;85.40;;;;;;5048706;28;20480;-60
2023/04/19 12:11:02;;;;;;;4.90;2.38;;;13.20;87.80;;;;;;5048628;28;20382;-60
2023/04/19 12:13:30;;;;;;;5.53;2.35;;;13.30;86.90;;;;;;5048773;28;20037;-59
2023/04/19 12:15:55;;;;;;;7.72;2.38;;;13.20;86.70;;;;;;5048664;28;20084;-60
2023/04/19 12:18:21;;;;;;;4.88;2.55;;;13.10;88.50;;;;;;5047947;28;20083;-60
2023/04/19 12:20:49;;;;;;;4.15;1.75;;;13.10;88.70;;;;;;5047024;28;20044;-60
2023/04/19 12:23:18;;;;;;;5.22;2.15;;;13.10;89.50;;;;;;5048716;28;20049;-60
2023/04/19 12:25:45;;;;;;;6.55;2.60;;;13.00;90.20;;;;;;5033378;28;20100;-60
2023/04/19 12:28:12;;;;;;;7.05;3.00;;;13.00;90.50;;;;;;5029374;28;20047;-60
2023/04/19 12:30:38;;;;;;;5.28;2.50;;;13.00;90.70;;;;;;5030055;28;20048;-60
2023/04/19 12:33:06;;;;;;;7.10;2.30;;;13.00;91.00;;;;;;5021513;28;20045;-60
2023/04/19 12:35:32;;;;;;;6.55;2.22;;;13.10;91.30;;;;;;5048425;28;20067;-60
2023/04/19 12:37:59;;;;;;;5.60;2.95;;;12.90;88.10;;;;;;5048181;28;20052;-60
2023/04/19 12:40:26;;;;;;;7.43;2.30;;;12.90;87.80;;;;;;5031269;28;20040;-60
2023/04/19 12:42:52;;;;;;;5.53;2.20;;;13.00;90.00;;;;;;5048643;28;20060;-60
2023/04/19 12:45:19;;;;;;;6.03;2.60;;;12.90;88.20;;;;;;5048624;28;20051;-61